Time;durP1;ratioP1;P1;durP2;ratioP2;P2;SDS_P1;SDS_P2;PMS_P1;PMS_P2;Temp;Humidity;BMP_temperature;BMP_pressure;BME280_temperature;BME280_humidity;BME280_pressure;Samples;Min_cycle;Max_cycle;Signal;HPM_P1;HPM_P2
2022/01/14 00:02:18;;;;;;;161.30;45.88;;;;;;;1.78;58.48;97161.25;4991059;28;20045;-62
2022/01/14 00:04:43;;;;;;;162.25;46.75;;;;;;;2.19;58.62;97226.75;4989682;28;20037;-63
2022/01/14 00:07:09;;;;;;;156.80;47.22;;;;;;;0.52;58.19;96957.25;4991638;28;20030;-61
2022/01/14 00:09:36;;;;;;;159.07;47.53;;;;;;;0.97;57.31;96967.22;4991124;28;20488;-61
2022/01/14 00:12:09;;;;;;;162.93;47.78;;;;;;;0.34;57.82;96882.84;4991208;28;20061;-63
2022/01/14 00:14:40;;;;;;;153.13;46.75;;;;;;;0.42;58.67;96888.72;4991549;28;20558;-62
2022/01/14 00:17:10;;;;;;;162.65;48.70;;;;;;;2.73;56.87;97189.00;4991500;28;20037;-62
2022/01/14 00:19:36;;;;;;;167.25;49.17;;;;;;;2.70;55.88;97125.50;4991575;28;20030;-62
2022/01/14 00:22:08;;;;;;;166.77;49.88;;;;;;;1.49;55.53;96937.66;4990819;28;20049;-62
2022/01/14 00:35:15;;;;;;;157.93;47.58;;;;;;;0.35;57.89;96936.81;4992177;28;20392;-62
2022/01/14 00:37:41;;;;;;;159.18;48.90;;;;;;;0.01;58.45;96901.03;4990801;28;20034;-62
2022/01/14 00:40:07;;;;;;;159.18;46.78;;;;;;;1.67;57.61;97094.44;4990481;28;20383;-62
2022/01/14 00:42:32;;;;;;;170.52;49.88;;;;;;;0.76;56.55;96889.59;4990615;28;20656;-63
2022/01/14 00:44:58;;;;;;;152.30;46.90;;;;;;;3.15;55.91;97201.84;4990672;28;20026;-62
2022/01/14 00:47:23;;;;;;;169.15;48.47;;;;;;;1.26;55.06;96898.72;4990561;28;20032;-63
2022/01/14 00:49:48;;;;;;;157.38;46.42;;;;;;;3.32;54.91;97174.09;4991118;28;20037;-63
2022/01/14 00:52:14;;;;;;;178.95;47.97;;;;;;;0.21;55.85;96844.38;4988690;28;20102;-63
2022/01/14 00:54:39;;;;;;;165.90;48.85;;;;;;;0.11;57.82;96936.31;4990712;28;20504;-62
2022/01/14 00:59:33;;;;;;;155.55;47.45;;;;;;;-0.05;58.32;96926.97;4989945;28;20113;-62
2022/01/14 01:02:00;;;;;;;151.32;47.13;;;;;;;-0.44;57.95;96854.31;4990308;28;20426;-62
2022/01/14 01:04:33;;;;;;;156.85;47.50;;;;;;;0.83;58.57;97046.81;4991390;28;20038;-62
2022/01/14 01:07:01;;;;;;;150.57;47.35;;;;;;;2.03;57.02;97117.69;4990672;28;20032;-62
2022/01/14 01:09:29;;;;;;;152.00;46.33;;;;;;;0.93;56.44;96903.94;4989782;28;20078;-62
2022/01/14 01:12:10;;;;;;;161.18;48.13;;;;;;;1.62;55.60;96998.97;4989959;28;20165;-62
2022/01/14 01:14:44;;;;;;;149.88;45.17;;;;;;;0.90;55.67;96812.66;4990218;28;20034;-62
2022/01/14 01:17:11;;;;;;;145.43;46.28;;;;;;;1.60;54.84;96890.84;4990273;28;20081;-63
2022/01/14 01:19:36;;;;;;;147.20;45.28;;;;;;;1.80;54.24;96897.66;4990541;28;20080;-62
2022/01/14 01:22:02;;;;;;;143.98;45.88;;;;;;;0.98;53.94;96752.19;4991314;28;20488;-62
2022/01/14 01:24:28;;;;;;;145.30;46.13;;;;;;;1.97;52.92;96971.50;4990061;28;20432;-63
2022/01/14 01:26:54;;;;;;;143.57;45.30;;;;;;;0.60;54.96;96855.94;4990176;28;20061;-63
2022/01/14 01:31:49;;;;;;;139.10;45.85;;;;;;;2.16;55.14;97046.00;4989161;28;20048;-62
2022/01/14 01:34:18;;;;;;;128.35;43.95;;;;;;;1.64;54.13;96920.88;4989432;28;20472;-62
2022/01/14 01:36:46;;;;;;;147.82;45.28;;;;;;;2.96;53.92;97119.38;4990062;28;20565;-62
2022/01/14 01:39:15;;;;;;;141.73;45.45;;;;;;;1.27;53.80;96883.78;4989594;28;20040;-62
2022/01/14 01:41:43;;;;;;;139.05;44.35;;;;;;;1.06;53.41;96871.69;4989677;28;20461;-62
2022/01/14 01:44:10;;;;;;;130.70;43.33;;;;;;;2.08;53.23;97057.50;4989940;28;20030;-62
2022/01/14 01:46:39;;;;;;;134.32;41.92;;;;;;;0.31;55.16;96915.47;4990011;28;20465;-63
2022/01/14 01:49:06;;;;;;;123.43;41.70;;;;;;;0.40;54.68;96859.31;4987577;28;20033;-63
2022/01/14 01:51:32;;;;;;;132.48;42.38;;;;;;;2.30;55.49;97185.94;4990611;28;20116;-62
2022/01/14 01:53:57;;;;;;;130.32;42.72;;;;;;;-0.49;56.61;96829.75;4989699;28;20427;-62
2022/01/14 01:56:23;;;;;;;131.60;43.22;;;;;;;1.95;55.72;97090.84;4989879;28;20126;-62
2022/01/14 01:58:49;;;;;;;124.35;41.75;;;;;;;0.84;54.90;96933.16;4989938;28;20054;-63
2022/01/14 02:01:14;;;;;;;123.68;42.53;;;;;;;2.04;55.00;97093.03;4989090;28;20046;-63
2022/01/14 02:03:40;;;;;;;126.43;42.33;;;;;;;-0.10;57.07;96884.09;4989353;28;20034;-62
2022/01/14 02:06:06;;;;;;;116.97;40.60;;;;;;;-0.57;58.58;96915.16;4990876;28;20023;-62
2022/01/14 02:08:32;;;;;;;118.68;42.10;;;;;;;-0.51;58.50;96911.00;4989396;28;20161;-63
2022/01/14 02:10:59;;;;;;;118.93;43.05;;;;;;;0.25;57.39;96969.38;4989269;28;20030;-62
2022/01/14 02:13:25;;;;;;;126.63;41.47;;;;;;;-0.26;56.46;96845.97;4989366;28;20031;-62
2022/01/14 02:18:48;;;;;;;126.10;43.25;;;;;;;-1.02;58.13;96829.38;4989300;28;20052;-63
2022/01/14 02:24:44;;;;;;;115.80;40.00;;;;;;;-0.70;58.02;96849.75;4989661;28;20037;-63
2022/01/14 02:26:54;;;;;;;117.47;39.08;;;;;;;-0.30;57.33;96871.72;4989318;28;20039;-63
2022/01/14 02:29:21;;;;;;;112.18;40.15;;;;;;;0.28;56.96;96947.25;4989240;28;20065;-62
2022/01/14 02:31:47;;;;;;;124.10;41.80;;;;;;;0.97;55.87;96926.13;4989460;28;20492;-62
2022/01/14 02:34:15;;;;;;;131.38;42.90;;;;;;;0.10;55.87;96793.38;4987944;28;20436;-62
2022/01/14 02:36:43;;;;;;;133.02;43.00;;;;;;;0.80;55.56;96924.88;4991124;28;20033;-63
2022/01/14 02:39:10;;;;;;;136.93;44.28;;;;;;;-0.48;54.91;96695.44;4969958;28;20019;-62
2022/01/14 02:41:38;;;;;;;118.65;41.10;;;;;;;1.34;54.85;96934.44;4970788;28;20512;-62
2022/01/14 02:44:06;;;;;;;125.05;41.95;;;;;;;2.95;54.74;97113.31;4974026;28;20484;-63
2022/01/14 02:46:38;;;;;;;117.28;41.80;;;;;;;0.56;53.99;96732.44;4974027;28;20026;-63
2022/01/14 02:49:04;;;;;;;123.63;42.33;;;;;;;3.23;53.69;97118.28;4981246;28;20026;-61
2022/01/14 02:51:30;;;;;;;120.32;41.35;;;;;;;0.39;53.45;96768.69;4994437;28;20030;-60
2022/01/14 02:53:58;;;;;;;134.50;45.03;;;;;;;2.63;53.46;97086.13;4992878;28;20536;-61
2022/01/14 02:56:29;;;;;;;127.43;42.10;;;;;;;1.51;53.69;96901.53;4992938;28;20027;-63
2022/01/14 02:58:59;;;;;;;129.73;43.22;;;;;;;2.42;53.95;97105.56;4992824;28;20122;-63
2022/01/14 03:01:26;;;;;;;124.28;42.80;;;;;;;0.83;54.18;96877.34;4992693;28;20489;-63
2022/01/14 03:03:57;;;;;;;120.28;41.45;;;;;;;-0.17;56.14;96864.94;4992323;28;20022;-61
2022/01/14 03:06:23;;;;;;;119.78;42.00;;;;;;;0.43;56.56;96963.63;4994110;28;20014;-63
2022/01/14 03:08:48;;;;;;;126.88;42.45;;;;;;;0.96;55.63;96970.84;4992399;28;20499;-61
2022/01/14 03:11:34;;;;;;;127.13;43.65;;;;;;;0.05;55.34;96792.38;4990834;28;20026;-61
2022/01/14 03:14:01;;;;;;;131.80;42.13;;;;;;;0.51;54.74;96785.44;4992464;28;20034;-63
2022/01/14 03:16:27;;;;;;;120.97;41.70;;;;;;;0.88;54.53;96830.38;4992534;28;20449;-61
2022/01/14 03:19:03;;;;;;;116.28;41.10;;;;;;;1.26;54.02;96862.03;4991810;28;20030;-61
2022/01/14 03:21:36;;;;;;;122.28;41.88;;;;;;;1.99;53.22;96950.31;4993600;28;20030;-62
2022/01/14 03:24:17;;;;;;;112.50;40.47;;;;;;;0.77;53.15;96727.03;4991206;28;20091;-61
2022/01/14 03:26:45;;;;;;;115.07;40.53;;;;;;;1.57;53.04;96800.25;4992400;28;20049;-61
2022/01/14 03:29:11;;;;;;;117.72;41.15;;;;;;;2.12;52.46;96899.59;4991698;28;20117;-61
2022/01/14 03:31:36;;;;;;;133.85;43.83;;;;;;;2.74;52.71;96948.84;4992089;28;20102;-61
2022/01/14 03:34:02;;;;;;;119.03;42.08;;;;;;;1.22;52.11;96714.03;4991745;28;20100;-61
2022/01/14 03:36:28;;;;;;;114.22;39.75;;;;;;;1.37;51.62;96753.09;4990677;28;20499;-61
2022/01/14 03:38:54;;;;;;;116.05;41.97;;;;;;;1.58;51.47;96775.63;4991805;28;20026;-63
2022/01/14 03:41:19;;;;;;;106.55;39.75;;;;;;;3.56;51.67;97101.53;4991696;28;20030;-61
2022/01/14 03:43:44;;;;;;;111.22;39.97;;;;;;;2.54;51.14;96895.59;4991365;28;20031;-61
2022/01/14 03:46:10;;;;;;;114.07;41.22;;;;;;;0.21;51.01;96528.53;4990807;28;20031;-63
2022/01/14 03:48:36;;;;;;;111.72;41.53;;;;;;;0.90;51.08;96680.84;4991098;28;21384;-63
2022/01/14 03:51:01;;;;;;;116.22;41.63;;;;;;;1.83;50.99;96868.38;4992822;28;20026;-63
2022/01/14 03:53:27;;;;;;;118.13;40.70;;;;;;;1.85;50.68;96822.78;4990805;28;20058;-61
2022/01/14 03:55:52;;;;;;;117.47;42.55;;;;;;;2.07;50.74;96837.22;4991801;28;20542;-63
2022/01/14 03:58:18;;;;;;;112.63;41.13;;;;;;;2.26;50.54;96846.84;4991754;28;20399;-61
2022/01/14 04:00:43;;;;;;;112.53;39.28;;;;;;;1.79;50.56;96753.56;4991252;28;20026;-62
2022/01/14 04:03:09;;;;;;;119.47;41.33;;;;;;;2.37;50.25;96847.19;4991298;28;20030;-60
2022/01/14 04:05:35;;;;;;;106.97;39.05;;;;;;;1.76;50.26;96801.22;4992521;28;20521;-60
2022/01/14 04:08:00;;;;;;;105.10;37.85;;;;;;;3.21;50.43;97014.31;4991263;28;20030;-62
2022/01/14 04:10:27;;;;;;;105.53;37.85;;;;;;;0.55;51.38;96703.84;4991233;28;20544;-63
2022/01/14 04:12:59;;;;;;;102.30;38.00;;;;;;;1.25;51.08;96784.41;4991259;28;20026;-62
2022/01/14 04:15:37;;;;;;;107.97;39.95;;;;;;;2.18;51.40;96925.03;4991390;28;20034;-62
2022/01/14 04:18:05;;;;;;;106.60;38.83;;;;;;;3.22;51.12;97039.59;5004306;23;20093;-66
2022/01/14 04:20:32;;;;;;;98.05;39.53;;;;;;;2.88;50.86;96978.50;4991823;28;20062;-67
2022/01/14 04:22:57;;;;;;;95.13;37.22;;;;;;;3.26;50.67;97006.59;4989801;28;20022;-65
2022/01/14 04:25:23;;;;;;;96.00;36.25;;;;;;;2.85;50.60;97011.25;4991639;28;20056;-65
2022/01/14 04:27:49;;;;;;;121.30;42.13;;;;;;;3.13;50.99;97020.66;4991224;28;20570;-66
2022/01/14 04:30:15;;;;;;;97.40;36.83;;;;;;;3.39;50.91;97031.00;4991071;28;20030;-66
2022/01/14 04:32:41;;;;;;;101.07;38.50;;;;;;;3.25;50.59;96989.22;4990963;28;20022;-66
2022/01/14 04:35:07;;;;;;;97.35;37.17;;;;;;;3.50;50.50;97021.63;4991950;28;20076;-66
2022/01/14 04:37:33;;;;;;;95.65;37.50;;;;;;;3.58;50.24;97041.59;4990836;28;20018;-66
2022/01/14 04:39:58;;;;;;;105.00;37.95;;;;;;;3.15;49.81;96960.75;4990840;28;20114;-66
2022/01/14 04:42:25;;;;;;;117.88;39.97;;;;;;;3.63;49.90;97047.88;4990717;28;20026;-65
2022/01/14 04:44:54;;;;;;;100.35;38.08;;;;;;;3.47;49.94;96990.47;4991068;28;20080;-66
2022/01/14 04:47:31;;;;;;;100.65;37.00;;;;;;;3.58;49.94;97028.44;4991039;28;20026;-65
2022/01/14 04:49:58;;;;;;;100.32;37.08;;;;;;;3.55;49.23;96995.47;4991995;28;20033;-65
2022/01/14 04:52:24;;;;;;;97.55;36.92;;;;;;;3.64;49.35;97020.53;4990776;28;20018;-66
2022/01/14 04:54:49;;;;;;;105.10;37.40;;;;;;;3.60;49.10;97006.19;4991089;28;20542;-66
2022/01/14 04:57:16;;;;;;;114.70;39.45;;;;;;;3.69;49.62;97027.78;4990775;28;20476;-64
2022/01/14 04:59:46;;;;;;;105.68;37.25;;;;;;;3.52;49.18;97024.84;4990319;28;20038;-65
2022/01/14 05:02:13;;;;;;;89.43;34.40;;;;;;;3.34;49.46;97033.47;4990391;28;20065;-64
2022/01/14 05:04:39;;;;;;;97.43;36.25;;;;;;;3.19;49.91;96982.19;4990960;28;20065;-65
2022/01/14 05:07:05;;;;;;;91.97;35.70;;;;;;;3.46;50.09;97019.63;4991757;28;20030;-64
2022/01/14 05:09:33;;;;;;;92.57;35.78;;;;;;;2.73;49.52;96894.69;4990022;28;20558;-64
2022/01/14 05:12:06;;;;;;;79.65;31.85;;;;;;;2.34;50.51;96956.88;4990451;28;20032;-65
2022/01/14 05:14:31;;;;;;;81.63;31.88;;;;;;;1.88;53.58;97012.09;4990591;28;20682;-66
2022/01/14 05:16:57;;;;;;;96.70;34.75;;;;;;;1.85;52.85;96939.03;4990446;28;20034;-64
2022/01/14 05:19:22;;;;;;;86.13;32.47;;;;;;;2.93;52.15;97025.19;4989485;28;20439;-65
2022/01/14 05:21:48;;;;;;;82.07;33.50;;;;;;;3.12;51.60;97022.47;4991408;28;20034;-64
2022/01/14 05:24:13;;;;;;;85.30;33.42;;;;;;;2.75;51.24;96965.41;4990318;28;20652;-65
2022/01/14 05:26:38;;;;;;;86.97;34.40;;;;;;;3.20;51.03;97012.72;4990352;28;20120;-65
2022/01/14 05:29:04;;;;;;;84.47;32.72;;;;;;;3.41;50.80;97017.63;4988666;28;20034;-65
2022/01/14 05:32:08;;;;;;;89.05;31.95;;;;;;;3.45;50.66;97020.66;4990215;28;20088;-66
2022/01/14 05:34:35;;;;;;;88.38;32.78;;;;;;;2.63;50.12;96896.16;4978949;28;20042;-65
2022/01/14 05:37:03;;;;;;;80.55;32.53;;;;;;;3.19;50.47;96961.94;4990316;28;20018;-66
2022/01/14 05:39:29;;;;;;;82.03;31.15;;;;;;;2.93;50.44;96918.22;4989827;28;20023;-64
2022/01/14 05:41:55;;;;;;;77.95;31.50;;;;;;;2.78;50.06;96899.31;4990046;28;20053;-64
2022/01/14 05:44:23;;;;;;;82.00;31.95;;;;;;;3.21;49.86;96952.00;4990319;28;20018;-67
2022/01/14 05:46:50;;;;;;;81.22;32.58;;;;;;;3.40;49.70;96994.97;4990382;28;20584;-65
2022/01/14 05:49:15;;;;;;;68.50;29.58;;;;;;;3.33;50.14;97005.56;4989459;28;20114;-66
2022/01/14 05:51:41;;;;;;;80.15;32.33;;;;;;;2.94;49.69;96914.56;4991097;28;20105;-65
2022/01/14 05:54:06;;;;;;;75.35;30.92;;;;;;;2.77;49.88;96895.06;4980899;28;20023;-65
2022/01/14 05:56:32;;;;;;;75.03;29.30;;;;;;;2.93;49.77;96928.75;4990082;28;20653;-65
2022/01/14 05:58:57;;;;;;;75.90;30.38;;;;;;;2.83;49.23;96957.28;4989755;28;20023;-66
2022/01/14 06:01:23;;;;;;;71.63;29.13;;;;;;;2.59;50.83;96972.75;4989956;28;20055;-65
2022/01/14 06:03:48;;;;;;;67.30;27.50;;;;;;;2.49;50.55;96946.13;4989597;28;20041;-65
2022/01/14 06:06:13;;;;;;;61.85;25.95;;;;;;;3.19;50.25;97040.84;4989629;28;20104;-65
2022/01/14 06:08:39;;;;;;;69.00;28.52;;;;;;;2.66;50.70;96962.22;4989599;28;20065;-65
2022/01/14 06:11:04;;;;;;;69.20;27.02;;;;;;;1.87;52.79;96984.25;4987934;28;20054;-65
2022/01/14 06:13:30;;;;;;;57.08;25.33;;;;;;;0.90;55.14;96930.53;4989607;28;20427;-66
2022/01/14 06:15:55;;;;;;;68.00;25.38;;;;;;;1.50;54.23;96996.97;4989845;28;20031;-65
2022/01/14 06:18:21;;;;;;;59.17;24.85;;;;;;;1.65;55.70;97017.75;4993454;28;20392;-65
2022/01/14 06:20:46;;;;;;;60.58;25.33;;;;;;;1.33;55.69;96990.47;4992673;28;20030;-65
2022/01/14 06:23:12;;;;;;;70.47;28.35;;;;;;;1.63;54.01;96929.78;4994825;28;20089;-65
2022/01/14 06:25:38;;;;;;;68.75;28.90;;;;;;;2.27;53.16;97021.75;4993325;28;20026;-66
2022/01/14 06:28:04;;;;;;;63.97;26.98;;;;;;;2.44;53.09;97027.34;4993350;28;20061;-65
2022/01/14 06:30:29;;;;;;;59.38;26.02;;;;;;;2.32;52.81;97013.25;4993360;28;20538;-65
2022/01/14 06:32:56;;;;;;;66.13;27.50;;;;;;;2.65;52.33;97001.84;4993228;28;20022;-66
2022/01/14 06:35:22;;;;;;;61.67;27.67;;;;;;;2.97;52.31;97023.72;4992757;28;20149;-66
2022/01/14 06:37:48;;;;;;;74.68;28.30;;;;;;;2.81;52.03;96969.81;4993007;28;20089;-65
2022/01/14 06:40:14;;;;;;;82.20;30.00;;;;;;;3.03;51.52;96989.53;4993009;28;20547;-65
2022/01/14 06:42:40;;;;;;;70.57;28.25;;;;;;;3.23;51.00;97004.41;4992856;28;20053;-63
2022/01/14 06:45:06;;;;;;;71.70;29.05;;;;;;;3.46;51.05;97023.06;4992530;28;20644;-67
2022/01/14 06:47:32;;;;;;;71.75;27.25;;;;;;;3.21;50.71;96965.16;4991871;28;20125;-68
2022/01/14 06:49:58;;;;;;;77.38;30.20;;;;;;;3.63;50.77;97018.09;4992149;28;20548;-67
2022/01/14 06:52:24;;;;;;;73.28;30.40;;;;;;;3.53;50.43;96988.81;4991790;28;20018;-65
2022/01/14 06:54:50;;;;;;;71.50;29.33;;;;;;;3.64;50.51;96998.66;4991896;28;20109;-64
2022/01/14 06:57:16;;;;;;;80.28;30.17;;;;;;;3.34;49.90;96935.34;4992851;28;20056;-68
2022/01/14 06:59:41;;;;;;;70.15;27.55;;;;;;;3.70;49.97;96989.09;4992824;28;20068;-66
2022/01/14 07:02:09;;;;;;;58.35;26.80;;;;;;;3.50;50.56;96952.41;4992907;28;20030;-67
2022/01/14 07:04:35;;;;;;;59.03;26.20;;;;;;;3.46;50.12;96933.63;4992733;28;20027;-67
2022/01/14 07:07:01;;;;;;;63.40;26.88;;;;;;;3.17;50.13;96903.47;4991589;28;20072;-67
2022/01/14 07:09:26;;;;;;;56.95;24.85;;;;;;;3.87;50.00;96993.59;4991837;28;20508;-68
2022/01/14 07:11:56;;;;;;;52.65;23.95;;;;;;;4.05;49.78;97008.66;4992312;28;20049;-68
2022/01/14 07:14:22;;;;;;;52.42;24.98;;;;;;;3.76;49.83;96970.63;4993034;28;20029;-67
2022/01/14 07:16:47;;;;;;;50.03;23.63;;;;;;;3.99;49.84;96985.78;4993289;28;20423;-67
2022/01/14 07:19:13;;;;;;;65.25;25.63;;;;;;;3.86;49.34;96972.78;4992483;28;20045;-67
2022/01/14 07:21:39;;;;;;;48.38;22.38;;;;;;;4.04;49.44;96993.84;4993806;28;20058;-68
2022/01/14 07:24:05;;;;;;;44.13;22.65;;;;;;;4.32;49.08;97029.47;4992170;28;20511;-67
2022/01/14 07:26:31;;;;;;;46.80;22.63;;;;;;;4.09;49.03;96983.47;4992629;28;20088;-67
2022/01/14 07:28:57;;;;;;;45.40;21.13;;;;;;;4.16;48.82;97012.41;4990847;28;20030;-68
2022/01/14 07:31:22;;;;;;;44.03;22.65;;;;;;;4.17;49.26;97030.63;4992476;28;20033;-66
2022/01/14 07:33:47;;;;;;;56.05;24.77;;;;;;;3.98;49.49;97010.53;4991978;28;20042;-64
2022/01/14 07:36:13;;;;;;;48.28;23.88;;;;;;;4.08;49.20;97033.72;4991511;28;20030;-65
2022/01/14 07:38:38;;;;;;;52.75;23.02;;;;;;;4.32;49.23;97032.91;4991975;28;20041;-64
2022/01/14 07:41:04;;;;;;;46.13;22.50;;;;;;;4.28;49.49;97030.91;4991842;28;20023;-65
2022/01/14 07:43:29;;;;;;;50.92;23.33;;;;;;;4.41;49.37;97015.81;4991882;28;20065;-67
2022/01/14 07:45:55;;;;;;;50.65;24.00;;;;;;;4.62;49.06;97027.75;4990752;28;20068;-69
2022/01/14 07:48:21;;;;;;;48.78;23.23;;;;;;;4.65;48.63;97006.19;4992156;28;20529;-72
2022/01/14 07:50:47;;;;;;;44.67;22.02;;;;;;;4.54;48.53;96969.25;4991023;28;20125;-69
2022/01/14 07:53:13;;;;;;;46.97;21.88;;;;;;;4.79;48.37;97008.69;4990141;28;20022;-70
2022/01/14 07:55:39;;;;;;;39.00;19.98;;;;;;;4.94;48.15;97031.00;4991654;28;20034;-69
2022/01/14 07:58:04;;;;;;;40.60;22.48;;;;;;;5.10;48.46;97048.06;4991896;28;20061;-69
2022/01/14 08:00:30;;;;;;;43.25;21.48;;;;;;;5.11;48.68;97039.13;4991216;28;20034;-69
2022/01/14 08:02:56;;;;;;;34.35;19.17;;;;;;;5.20;48.17;97021.97;4991645;28;20033;-65
2022/01/14 08:05:22;;;;;;;33.42;18.02;;;;;;;5.08;47.90;96991.28;4990041;28;20057;-68
2022/01/14 08:07:51;;;;;;;29.75;18.65;;;;;;;5.38;47.87;97022.97;4991229;28;20034;-67
2022/01/14 08:10:16;;;;;;;33.22;18.65;;;;;;;5.52;48.07;97028.84;4991221;28;20038;-67
2022/01/14 08:12:42;;;;;;;34.58;18.60;;;;;;;5.65;47.59;97037.38;4991262;28;20084;-65
2022/01/14 08:15:11;;;;;;;33.13;18.55;;;;;;;5.49;47.71;96998.44;4990089;28;20037;-66
2022/01/14 08:17:36;;;;;;;34.03;18.23;;;;;;;5.81;48.02;97038.56;4991287;28;20045;-67
2022/01/14 08:20:04;;;;;;;34.95;19.77;;;;;;;5.84;47.84;97029.38;4990884;28;20476;-68
2022/01/14 08:22:31;;;;;;;30.98;18.10;;;;;;;5.62;47.84;96998.22;4990919;28;20042;-66
2022/01/14 08:24:56;;;;;;;26.38;16.85;;;;;;;5.80;47.73;97012.38;4991219;28;20030;-66
2022/01/14 08:27:22;;;;;;;27.80;16.85;;;;;;;5.82;47.75;97002.38;4991382;28;20027;-68
2022/01/14 08:29:50;;;;;;;24.45;15.90;;;;;;;5.93;47.27;97005.06;4991097;28;20039;-67
2022/01/14 08:32:15;;;;;;;27.85;16.30;;;;;;;6.02;47.10;96994.97;4990932;28;20036;-67
2022/01/14 08:34:41;;;;;;;29.88;16.17;;;;;;;5.69;47.24;96925.00;4989552;28;20096;-68
2022/01/14 08:37:06;;;;;;;27.30;16.85;;;;;;;6.44;48.03;97045.06;4990935;28;20085;-66
2022/01/14 08:39:32;;;;;;;23.92;15.65;;;;;;;6.33;46.70;97003.59;4990730;28;20038;-67
2022/01/14 08:41:58;;;;;;;25.75;15.65;;;;;;;6.49;47.30;96992.31;4990943;28;20040;-68
2022/01/14 08:44:24;;;;;;;20.85;15.07;;;;;;;6.75;46.48;97038.59;4991158;28;20053;-66
2022/01/14 08:46:51;;;;;;;23.38;15.70;;;;;;;6.78;46.92;97036.28;4990884;28;20647;-67
2022/01/14 08:49:16;;;;;;;19.95;15.15;;;;;;;6.70;46.28;97025.25;4990479;28;20440;-67
2022/01/14 08:51:42;;;;;;;24.30;15.13;;;;;;;6.19;47.74;97011.75;4991913;28;20030;-65
2022/01/14 08:54:08;;;;;;;18.95;14.60;;;;;;;5.34;49.78;97001.47;4996853;28;20031;-66
2022/01/14 08:56:35;;;;;;;20.83;15.05;;;;;;;5.44;50.82;97032.63;4990636;28;20039;-67
2022/01/14 08:59:00;;;;;;;20.27;13.95;;;;;;;4.64;51.83;96958.97;4990284;28;20033;-67
2022/01/14 09:01:27;;;;;;;21.27;15.25;;;;;;;5.31;51.50;97059.16;4990754;28;20027;-67
2022/01/14 09:03:52;;;;;;;16.65;13.50;;;;;;;5.33;51.83;97031.53;4990699;28;20026;-67
2022/01/14 09:06:18;;;;;;;21.52;14.05;;;;;;;4.42;53.33;96956.00;4990327;28;20022;-68
2022/01/14 09:08:43;;;;;;;19.95;14.20;;;;;;;4.30;53.72;96960.38;4991555;28;20511;-66
2022/01/14 09:11:08;;;;;;;18.17;13.75;;;;;;;5.43;52.06;96994.06;4990251;28;20362;-69
2022/01/14 09:13:34;;;;;;;17.15;13.45;;;;;;;5.72;51.75;97009.03;4990516;28;20018;-68
2022/01/14 09:16:00;;;;;;;24.80;13.82;;;;;;;6.03;50.85;97015.06;4990700;28;20437;-66
2022/01/14 09:18:26;;;;;;;19.15;13.23;;;;;;;5.75;50.79;96997.22;4990222;28;20093;-67
2022/01/14 09:20:51;;;;;;;17.33;11.82;;;;;;;5.86;50.17;97012.28;4989223;28;20105;-68
2022/01/14 09:23:23;;;;;;;18.70;11.80;;;;;;;6.05;49.96;97025.44;4991181;28;20056;-67
2022/01/14 09:25:49;;;;;;;;;;;;;;;6.47;49.06;97024.25;4990733;28;20109;-64
2022/01/14 09:28:15;;;;;;;13.30;11.25;;;;;;;6.06;48.91;96997.97;4990370;28;20012;-65
2022/01/14 09:30:40;;;;;;;14.00;11.00;;;;;;;6.68;47.41;97008.84;4989725;28;20115;-65
2022/01/14 09:33:06;;;;;;;14.63;11.55;;;;;;;6.97;47.87;97001.75;4989750;28;20477;-65
2022/01/14 09:35:32;;;;;;;13.80;11.45;;;;;;;6.27;49.15;97028.28;4988816;28;20038;-65
2022/01/14 09:37:58;;;;;;;17.67;12.30;;;;;;;5.97;49.17;97008.06;4988847;28;20741;-65
2022/01/14 09:40:23;;;;;;;15.25;11.32;;;;;;;6.09;49.75;97031.84;4988589;28;20113;-65
2022/01/14 09:42:51;;;;;;;13.57;10.82;;;;;;;6.48;48.68;97023.22;4989963;28;20424;-65
2022/01/14 09:45:21;;;;;;;16.23;11.98;;;;;;;6.54;47.99;97018.03;4990234;28;20030;-65
2022/01/14 09:47:49;;;;;;;11.45;9.88;;;;;;;7.01;47.78;97040.75;4989949;28;20022;-66
2022/01/14 09:50:14;;;;;;;15.95;11.27;;;;;;;7.41;46.77;96986.16;4989583;28;20106;-65
2022/01/14 09:52:40;;;;;;;13.57;11.38;;;;;;;7.60;46.04;97029.91;4988740;28;20638;-65
2022/01/14 09:55:06;;;;;;;12.90;11.35;;;;;;;7.78;45.43;96987.31;4989789;28;20049;-65
2022/01/14 09:57:31;;;;;;;15.95;11.20;;;;;;;8.27;44.62;97007.94;4989629;28;20049;-65
2022/01/14 09:59:57;;;;;;;13.35;10.73;;;;;;;7.32;45.77;96996.34;4988246;28;20031;-65
2022/01/14 10:02:37;;;;;;;17.13;10.45;;;;;;;7.37;47.12;97032.66;4989682;28;20030;-67
2022/01/14 10:05:04;;;;;;;13.00;10.35;;;;;;;7.82;45.25;96977.03;4989579;28;20050;-66
2022/01/14 10:07:30;;;;;;;14.15;10.50;;;;;;;7.93;45.46;97026.47;4991059;28;20419;-66
2022/01/14 10:09:59;;;;;;;12.18;10.30;;;;;;;6.39;48.17;97007.94;4989418;28;20035;-71
2022/01/14 10:12:25;;;;;;;13.00;9.38;;;;;;;6.34;48.68;97021.03;4989685;28;20026;-68
2022/01/14 10:15:06;;;;;;;13.95;9.35;;;;;;;7.23;46.41;97032.16;4989771;28;20545;-68
2022/01/14 10:17:43;;;;;;;10.95;9.23;;;;;;;7.97;45.69;97016.22;4989618;28;20040;-69
2022/01/14 10:20:14;;;;;;;10.48;8.75;;;;;;;7.62;45.03;97021.72;4987687;28;20037;-69
2022/01/14 10:22:45;;;;;;;9.30;7.33;;;;;;;7.44;45.01;97015.59;4989208;28;20484;-67
2022/01/14 10:25:16;;;;;;;9.27;8.27;;;;;;;6.74;46.14;96978.81;4982294;28;20015;-67
2022/01/14 10:27:48;;;;;;;10.25;6.95;;;;;;;6.19;47.40;96955.44;4988616;28;20022;-66
2022/01/14 10:30:19;;;;;;;8.98;7.70;;;;;;;6.60;46.92;97009.97;4989294;28;20029;-67
2022/01/14 10:32:53;;;;;;;10.10;7.35;;;;;;;6.11;46.62;96976.94;4989350;28;20022;-67
2022/01/14 10:35:21;;;;;;;10.98;7.20;;;;;;;6.38;47.65;96990.47;4988800;28;20069;-67
2022/01/14 10:37:47;;;;;;;8.13;7.00;;;;;;;6.40;46.82;96968.09;4989110;28;20053;-66
2022/01/14 10:40:34;;;;;;;8.40;7.43;;;;;;;6.97;45.64;96938.25;4988720;28;20074;-66
2022/01/14 10:43:04;;;;;;;10.00;8.15;;;;;;;7.64;44.08;97004.56;4989342;28;20434;-66
2022/01/14 10:45:31;;;;;;;11.57;7.88;;;;;;;7.78;43.98;96997.91;4989514;28;20026;-66
2022/01/14 10:48:08;;;;;;;12.98;7.82;;;;;;;7.42;44.22;96982.44;4989146;28;20042;-68
2022/01/14 10:50:39;;;;;;;12.80;7.95;;;;;;;7.41;45.28;97005.47;4987512;28;20034;-67
2022/01/14 10:53:18;;;;;;;11.45;8.23;;;;;;;7.41;45.71;96975.56;4990327;28;20160;-68
2022/01/14 10:55:47;;;;;;;15.57;8.25;;;;;;;7.91;44.29;96998.63;4989459;28;20520;-67
2022/01/14 10:58:22;;;;;;;11.82;8.40;;;;;;;8.43;42.96;96983.25;4989320;28;20492;-66
2022/01/14 11:00:54;;;;;;;16.02;8.20;;;;;;;8.16;43.14;96991.06;4989183;28;20050;-68
2022/01/14 11:03:34;;;;;;;9.50;7.53;;;;;;;8.22;42.42;96989.28;4989559;28;20030;-66
2022/01/14 11:06:31;;;;;;;11.93;7.85;;;;;;;7.65;43.57;96989.47;4992166;28;20080;-66
2022/01/14 11:09:18;;;;;;;11.82;8.15;;;;;;;7.63;44.01;96942.06;4993433;28;20030;-67
2022/01/14 11:11:45;;;;;;;8.90;7.60;;;;;;;7.78;43.87;96979.38;4991301;28;20113;-67
2022/01/14 11:14:13;;;;;;;9.30;8.25;;;;;;;7.75;43.56;96956.00;4992238;28;20101;-67
2022/01/14 11:16:39;;;;;;;11.48;7.03;;;;;;;7.77;42.99;96956.56;4992523;28;20062;-67
2022/01/14 11:19:07;;;;;;;7.70;6.43;;;;;;;8.21;40.87;96938.13;4991275;28;20062;-72
2022/01/14 11:24:27;;;;;;;11.00;7.18;;;;;;;8.30;42.02;96959.72;4987524;28;20080;-67
2022/01/14 11:27:19;;;;;;;11.00;7.32;;;;;;;8.07;42.90;96958.88;4991415;28;20030;-69
2022/01/14 11:29:47;;;;;;;15.07;7.25;;;;;;;8.24;42.40;96953.56;4990261;28;20519;-68
2022/01/14 11:32:16;;;;;;;14.35;6.57;;;;;;;8.35;41.51;96943.88;4990827;28;20026;-68
2022/01/14 11:34:45;;;;;;;8.50;6.63;;;;;;;8.29;41.90;96948.31;4992242;28;20015;-67
2022/01/14 11:37:17;;;;;;;12.65;7.07;;;;;;;8.80;41.35;96927.78;4993178;28;20052;-67
2022/01/14 11:40:08;;;;;;;14.27;7.80;;;;;;;8.77;41.56;96944.16;4991943;28;20029;-69
2022/01/14 11:42:51;;;;;;;11.10;7.10;;;;;;;9.29;40.88;96921.63;4991856;28;20530;-68
2022/01/14 11:45:20;;;;;;;15.07;8.10;;;;;;;8.74;42.56;96920.78;4992180;28;20050;-67
2022/01/14 11:47:48;;;;;;;19.67;9.90;;;;;;;8.64;41.61;96848.25;4991957;28;20023;-69
2022/01/14 11:50:19;;;;;;;10.32;7.32;;;;;;;9.70;40.47;96933.38;4991744;28;20030;-67
2022/01/14 11:52:47;;;;;;;14.80;8.52;;;;;;;9.19;41.63;96922.31;4992144;28;20022;-67